createdAt,value
2022-12-13T00:01:32.705Z,81.49
2022-12-13T00:04:01.730Z,81.69
2022-12-13T00:06:29.281Z,82.11
2022-12-13T00:08:55.748Z,81.71
2022-12-13T00:11:22.617Z,82.66
2022-12-13T00:13:49.096Z,82.03
2022-12-13T00:16:22.681Z,82.54
2022-12-13T00:18:51.539Z,82.68
2022-12-13T00:21:20.803Z,82.59
2022-12-13T00:23:47.548Z,82.38
2022-12-13T00:26:16.651Z,82.01
2022-12-13T00:28:43.562Z,82.29
2022-12-13T00:31:53.005Z,82.60
2022-12-13T00:33:56.896Z,82.00
2022-12-13T00:36:23.417Z,82.29
2022-12-13T00:39:00.550Z,82.74
2022-12-13T00:41:33.574Z,82.53
2022-12-13T00:44:00.970Z,82.77
2022-12-13T00:46:27.831Z,82.35
2022-12-13T00:48:57.005Z,82.37
2022-12-13T00:51:25.470Z,82.67
2022-12-13T00:53:51.939Z,82.91
2022-12-13T00:56:21.823Z,83.30
2022-12-13T00:58:52.135Z,83.38
2022-12-13T01:01:21.532Z,82.70
2022-12-13T01:03:49.210Z,83.16
2022-12-13T01:06:19.359Z,83.53
2022-12-13T01:08:46.734Z,83.23
2022-12-13T01:11:13.910Z,83.23
2022-12-13T01:13:41.065Z,83.45
2022-12-13T01:16:10.186Z,84.22
2022-12-13T01:18:37.197Z,84.07
2022-12-13T01:21:05.208Z,84.57
2022-12-13T01:23:32.553Z,84.92
2022-12-13T01:26:01.639Z,84.68
2022-12-13T01:28:29.030Z,84.80
2022-12-13T01:31:00.455Z,84.70
2022-12-13T01:33:27.826Z,84.19
2022-12-13T01:35:54.780Z,84.06
2022-12-13T01:38:21.796Z,84.39
2022-12-13T01:40:59.753Z,84.26
2022-12-13T01:43:46.841Z,84.84
2022-12-13T01:46:15.489Z,84.47
2022-12-13T01:48:53.958Z,84.20
2022-12-13T01:51:26.461Z,84.43
2022-12-13T01:53:58.214Z,84.45
2022-12-13T01:56:31.537Z,84.48
2022-12-13T01:59:00.502Z,84.41
2022-12-13T02:01:27.676Z,84.47
2022-12-13T02:03:54.143Z,84.62
2022-12-13T02:06:30.037Z,84.73
2022-12-13T02:08:56.754Z,85.06
2022-12-13T02:11:23.198Z,85.17
2022-12-13T02:13:49.692Z,85.33
2022-12-13T02:16:22.785Z,84.62
2022-12-13T02:19:11.264Z,84.66
2022-12-13T02:21:50.484Z,84.72
2022-12-13T02:24:59.057Z,84.97
2022-12-13T02:27:42.998Z,84.37
2022-12-13T02:30:27.009Z,84.43
2022-12-13T02:33:22.356Z,84.31
2022-12-13T02:36:26.228Z,84.75
2022-12-13T02:39:10.617Z,84.78
2022-12-13T02:41:44.331Z,85.05
2022-12-13T02:44:22.823Z,84.50
2022-12-13T02:47:02.899Z,85.05
2022-12-13T02:49:33.137Z,84.85
2022-12-13T02:52:00.623Z,84.60
2022-12-13T02:54:27.331Z,84.88
2022-12-13T02:56:58.926Z,85.19
2022-12-13T02:59:31.636Z,84.41
2022-12-13T03:02:31.509Z,84.53
2022-12-13T03:05:39.189Z,84.91
2022-12-13T03:08:29.398Z,85.31
2022-12-13T03:11:03.418Z,85.03
2022-12-13T03:13:54.454Z,84.77
2022-12-13T03:16:27.339Z,84.69
2022-12-13T03:18:57.514Z,84.37
2022-12-13T03:21:24.140Z,84.67
2022-12-13T03:23:51.122Z,84.32
2022-12-13T03:26:21.510Z,84.36
2022-12-13T03:28:48.715Z,84.39
2022-12-13T03:31:15.181Z,83.76
2022-12-13T03:33:41.726Z,83.89
2022-12-13T03:36:08.834Z,83.54
2022-12-13T03:38:36.595Z,83.89
2022-12-13T03:41:07.434Z,83.53
2022-12-13T03:43:34.113Z,84.01
2022-12-13T03:46:01.271Z,83.65
2022-12-13T03:48:28.137Z,84.16
2022-12-13T03:50:54.955Z,83.31
2022-12-13T03:53:33.201Z,83.88
2022-12-13T03:56:03.648Z,83.70
2022-12-13T03:58:35.597Z,84.20
2022-12-13T04:01:07.005Z,83.87
2022-12-13T04:03:33.666Z,83.34
2022-12-13T04:06:00.093Z,83.81
2022-12-13T04:08:26.567Z,83.38
2022-12-13T04:10:53.187Z,83.25
2022-12-13T04:13:34.512Z,82.85
2022-12-13T04:16:02.065Z,82.80
2022-12-13T04:18:28.894Z,83.40
2022-12-13T04:20:55.306Z,82.55
2022-12-13T04:23:21.718Z,83.17
2022-12-13T04:25:48.270Z,82.64
2022-12-13T04:28:21.804Z,83.12
2022-12-13T04:30:53.188Z,82.49
2022-12-13T04:33:22.221Z,83.32
2022-12-13T04:35:49.710Z,83.11
2022-12-13T04:38:16.773Z,82.64
2022-12-13T04:40:43.187Z,83.03
2022-12-13T04:43:09.727Z,82.58
2022-12-13T04:45:36.209Z,82.30
2022-12-13T04:48:02.865Z,82.25
2022-12-13T04:50:29.303Z,82.73
2022-12-13T04:52:55.803Z,82.37
2022-12-13T04:55:22.289Z,82.71
2022-12-13T04:57:49.365Z,82.83
2022-12-13T05:00:16.538Z,82.93
2022-12-13T05:02:43.175Z,82.41
2022-12-13T05:05:10.691Z,83.04
2022-12-13T05:07:42.416Z,82.49
2022-12-13T05:10:10.449Z,83.14
2022-12-13T05:12:36.865Z,83.17
2022-12-13T05:15:03.765Z,82.71
2022-12-13T05:17:30.285Z,83.27
2022-12-13T05:19:56.750Z,82.92
2022-12-13T05:22:23.229Z,83.38
2022-12-13T05:24:49.688Z,83.03
2022-12-13T05:27:25.099Z,83.36
2022-12-13T05:30:03.115Z,83.24
2022-12-13T05:32:44.242Z,83.68
2022-12-13T05:35:13.119Z,83.23
2022-12-13T05:37:39.941Z,83.94
2022-12-13T05:40:07.356Z,84.01
2022-12-13T05:42:33.898Z,83.62
2022-12-13T05:45:00.304Z,83.50
2022-12-13T05:47:26.749Z,83.97
2022-12-13T05:49:53.141Z,83.73
2022-12-13T05:52:21.991Z,83.54
2022-12-13T05:54:57.162Z,84.22
2022-12-13T05:57:27.580Z,84.17
2022-12-13T05:59:54.024Z,84.23
2022-12-13T06:02:21.806Z,84.70
2022-12-13T06:04:48.719Z,84.66
2022-12-13T06:07:15.372Z,84.14
2022-12-13T06:09:42.243Z,84.89
2022-12-13T06:12:30.865Z,84.42
2022-12-13T06:15:00.999Z,84.60
2022-12-13T06:17:32.951Z,84.86
2022-12-13T06:20:00.226Z,85.47
2022-12-13T06:22:27.560Z,85.39
2022-12-13T06:24:54.079Z,85.84
2022-12-13T06:27:21.106Z,86.00
2022-12-13T06:29:47.580Z,86.07
2022-12-13T06:32:14.021Z,85.95
2022-12-13T06:34:40.450Z,86.54
2022-12-13T06:37:08.633Z,86.91
2022-12-13T06:39:35.498Z,86.83
2022-12-13T06:42:05.838Z,86.95
2022-12-13T06:44:32.429Z,87.15
2022-12-13T06:47:11.626Z,87.43
2022-12-13T06:49:44.256Z,87.35
2022-12-13T06:52:13.174Z,87.16
2022-12-13T06:54:40.504Z,87.81
2022-12-13T06:57:06.952Z,87.58
2022-12-13T06:59:33.370Z,87.29
2022-12-13T07:02:03.773Z,87.72
2022-12-13T07:04:31.447Z,87.37
2022-12-13T07:07:01.636Z,87.41
2022-12-13T07:09:32.794Z,88.03
2022-12-13T07:11:59.449Z,87.85
2022-12-13T07:14:26.021Z,87.92
2022-12-13T07:16:55.467Z,88.32
2022-12-13T07:19:25.994Z,88.07
2022-12-13T07:22:01.526Z,88.41
2022-12-13T07:24:27.954Z,88.20
2022-12-13T07:26:54.418Z,88.34
2022-12-13T07:29:22.386Z,87.59
2022-12-13T07:31:49.736Z,88.05
2022-12-13T07:34:16.237Z,88.38
2022-12-13T07:36:42.660Z,87.67
2022-12-13T07:39:10.361Z,88.09
2022-12-13T07:41:36.801Z,87.73
2022-12-13T07:44:03.344Z,88.28
2022-12-13T07:46:33.574Z,88.11
2022-12-13T07:49:05.039Z,88.25
2022-12-13T07:51:34.763Z,87.54
2022-12-13T07:54:06.763Z,88.03
2022-12-13T07:56:34.569Z,87.64
2022-12-13T07:59:00.991Z,87.77
2022-12-13T08:01:28.402Z,87.95
2022-12-13T08:03:54.922Z,87.88
2022-12-13T08:06:21.398Z,88.33
2022-12-13T08:08:50.996Z,87.44
2022-12-13T08:11:17.591Z,87.22
2022-12-13T08:13:44.297Z,87.91
2022-12-13T08:16:28.174Z,87.63
2022-12-13T08:19:02.527Z,87.15
2022-12-13T08:21:54.086Z,86.99
2022-12-13T08:24:21.394Z,86.90
2022-12-13T08:26:47.922Z,86.34
2022-12-13T08:29:32.142Z,86.31
2022-12-13T08:32:02.059Z,86.19
2022-12-13T08:34:28.746Z,86.48
2022-12-13T08:37:02.869Z,85.37
2022-12-13T08:39:35.608Z,85.55
2022-12-13T08:42:16.834Z,85.21
2022-12-13T08:44:52.135Z,84.94
2022-12-13T08:47:22.942Z,84.76
2022-12-13T08:49:52.572Z,84.45
2022-12-13T08:52:21.082Z,84.02
2022-12-13T08:54:47.524Z,84.31
2022-12-13T08:57:13.953Z,84.05
2022-12-13T08:59:40.393Z,83.98
2022-12-13T09:02:07.012Z,83.55
2022-12-13T09:04:33.494Z,83.14
2022-12-13T09:07:01.626Z,83.68
2022-12-13T09:09:29.457Z,83.34
2022-12-13T09:11:59.674Z,83.76
2022-12-13T09:14:33.808Z,83.41
2022-12-13T09:17:02.724Z,82.81
2022-12-13T09:19:36.802Z,82.56
2022-12-13T09:22:05.196Z,83.10
2022-12-13T09:24:36.290Z,82.77
2022-12-13T09:27:09.497Z,82.78
2022-12-13T09:29:36.986Z,81.84
2022-12-13T09:32:03.663Z,82.29
2022-12-13T09:34:32.885Z,82.12
2022-12-13T09:37:01.136Z,81.49
2022-12-13T09:39:28.300Z,82.39
2022-12-13T09:42:00.920Z,82.31
2022-12-13T09:44:46.635Z,81.17
2022-12-13T09:47:26.935Z,80.68
2022-12-13T09:50:06.999Z,80.81
2022-12-13T09:52:39.789Z,80.71
2022-12-13T09:55:39.388Z,80.65
2022-12-13T09:58:14.138Z,80.11
2022-12-13T10:00:41.493Z,79.98
2022-12-13T10:03:14.067Z,80.01
2022-12-13T10:05:44.965Z,79.90
2022-12-13T10:08:20.687Z,79.46
2022-12-13T10:10:50.504Z,79.48
2022-12-13T10:13:26.080Z,78.74
2022-12-13T10:16:00.687Z,78.60
2022-12-13T10:18:37.870Z,77.90
2022-12-13T10:21:10.251Z,78.53
2022-12-13T10:23:59.859Z,77.90
2022-12-13T10:26:24.555Z,77.63
2022-12-13T10:29:01.915Z,77.31
2022-12-13T10:31:28.539Z,77.63
2022-12-13T10:33:57.172Z,76.57
2022-12-13T10:36:38.402Z,76.12
2022-12-13T10:39:05.162Z,75.86
2022-12-13T10:41:32.706Z,75.15
2022-12-13T10:44:25.447Z,74.29
2022-12-13T10:47:09.937Z,74.34
2022-12-13T10:49:52.135Z,74.59
2022-12-13T10:52:43.337Z,73.36
2022-12-13T10:55:28.810Z,73.21
2022-12-13T10:57:59.270Z,72.72
2022-12-13T11:00:38.925Z,73.37
2022-12-13T11:03:06.182Z,72.99
2022-12-13T11:05:35.039Z,73.24
2022-12-13T11:08:26.891Z,72.12
2022-12-13T11:10:59.116Z,72.45
2022-12-13T11:13:36.829Z,72.10
2022-12-13T11:16:16.563Z,72.01
2022-12-13T11:18:43.094Z,71.89
2022-12-13T11:21:09.766Z,71.34
2022-12-13T11:23:44.840Z,71.98
2022-12-13T11:26:24.569Z,72.12
2022-12-13T11:29:29.225Z,72.30
2022-12-13T11:32:24.608Z,71.22
2022-12-13T11:35:24.849Z,70.98
2022-12-13T11:38:11.070Z,71.42
2022-12-13T11:41:10.967Z,71.13
2022-12-13T11:43:47.696Z,71.55
2022-12-13T11:46:22.136Z,70.92
2022-12-13T11:48:58.634Z,71.10
2022-12-13T11:51:31.177Z,71.81
2022-12-13T11:54:23.685Z,71.16
2022-12-13T11:57:00.254Z,70.57
2022-12-13T11:59:45.248Z,70.72
2022-12-13T12:02:18.395Z,69.18
2022-12-13T12:04:59.732Z,69.62
2022-12-13T12:08:05.251Z,69.03
2022-12-13T12:10:49.059Z,69.45
2022-12-13T12:13:50.343Z,69.54
2022-12-13T12:16:46.328Z,69.70
2022-12-13T12:19:15.658Z,70.15
2022-12-13T12:22:18.893Z,69.92
2022-12-13T12:24:51.594Z,69.57
2022-12-13T12:27:38.761Z,69.65
2022-12-13T12:30:24.262Z,69.72
2022-12-13T12:33:11.440Z,69.88
2022-12-13T12:36:12.693Z,70.28
2022-12-13T12:38:52.000Z,70.38
2022-12-13T12:41:33.062Z,70.64
2022-12-13T12:44:30.632Z,70.69
2022-12-13T12:47:08.945Z,71.34
2022-12-13T12:50:06.939Z,70.68
2022-12-13T12:52:47.029Z,70.75
2022-12-13T12:55:43.970Z,71.46
2022-12-13T12:58:29.336Z,71.22
2022-12-13T13:01:25.352Z,70.73
2022-12-13T13:04:01.731Z,70.92
2022-12-13T13:06:37.568Z,70.33
2022-12-13T13:09:14.361Z,70.61
2022-12-13T13:11:43.678Z,70.44
2022-12-13T13:14:28.229Z,69.59
2022-12-13T13:16:55.767Z,69.12
2022-12-13T13:19:31.056Z,69.20
2022-12-13T13:22:01.270Z,69.49
2022-12-13T13:24:30.938Z,68.83
2022-12-13T13:27:10.880Z,68.91
2022-12-13T13:29:43.648Z,68.77
2022-12-13T13:32:28.548Z,68.20
2022-12-13T13:35:32.003Z,68.63
2022-12-13T13:38:28.754Z,68.65
2022-12-13T13:40:55.370Z,68.62
2022-12-13T13:43:32.503Z,68.58
2022-12-13T13:46:10.710Z,69.25
2022-12-13T13:48:48.618Z,68.30
2022-12-13T13:52:24.034Z,68.53
2022-12-13T13:54:59.829Z,68.61
2022-12-13T13:58:00.343Z,69.00
2022-12-13T14:00:44.076Z,69.42
2022-12-13T14:03:36.982Z,69.28
2022-12-13T14:06:46.226Z,69.44
2022-12-13T14:09:31.925Z,69.65
2022-12-13T14:12:27.758Z,70.19
2022-12-13T14:15:42.161Z,70.65
2022-12-13T14:18:28.043Z,71.07
2022-12-13T14:21:22.302Z,71.07
2022-12-13T14:24:13.719Z,71.46
2022-12-13T14:27:19.886Z,71.79
2022-12-13T14:30:09.474Z,71.95
2022-12-13T14:32:53.396Z,72.48
2022-12-13T14:35:27.617Z,72.86
2022-12-13T14:38:04.991Z,73.09
2022-12-13T14:40:37.108Z,73.11
2022-12-13T14:43:03.920Z,73.34
2022-12-13T14:45:36.792Z,73.26
2022-12-13T14:48:06.519Z,73.79
2022-12-13T14:50:36.619Z,73.86
2022-12-13T14:53:04.225Z,74.14
2022-12-13T14:55:33.683Z,74.17
2022-12-13T14:58:02.261Z,74.90
2022-12-13T15:00:39.963Z,75.08
2022-12-13T15:03:07.289Z,75.31
2022-12-13T15:05:44.301Z,75.79
2022-12-13T15:08:15.876Z,76.10
2022-12-13T15:11:03.090Z,76.82
2022-12-13T15:13:44.707Z,77.04
2022-12-13T15:16:23.957Z,77.46
2022-12-13T15:19:30.268Z,77.65
2022-12-13T15:22:07.590Z,78.01
2022-12-13T15:24:46.907Z,78.43
2022-12-13T15:27:24.517Z,78.17
2022-12-13T15:29:52.267Z,78.71
2022-12-13T15:32:22.686Z,78.79
2022-12-13T15:34:51.138Z,79.11
2022-12-13T15:37:28.086Z,79.47
2022-12-13T15:40:06.025Z,79.79
2022-12-13T15:42:35.729Z,79.89
2022-12-13T15:45:06.123Z,80.35
2022-12-13T15:47:33.264Z,80.47
2022-12-13T15:50:05.822Z,80.68
2022-12-13T15:52:38.019Z,81.28
2022-12-13T15:55:07.822Z,81.29
2022-12-13T15:57:48.008Z,81.61
2022-12-13T16:00:20.682Z,82.17
2022-12-13T16:03:08.705Z,82.17
2022-12-13T16:05:40.078Z,82.94
2022-12-13T16:08:15.855Z,82.45
2022-12-13T16:10:50.131Z,83.25
2022-12-13T16:13:29.155Z,83.47
2022-12-13T16:16:27.468Z,83.60
2022-12-13T16:18:57.717Z,83.83
2022-12-13T16:21:25.476Z,83.73
2022-12-13T16:23:51.997Z,84.12
2022-12-13T16:26:26.726Z,83.70
2022-12-13T16:28:55.292Z,84.46
2022-12-13T16:31:27.939Z,84.23
2022-12-13T16:33:54.560Z,84.48
2022-12-13T16:36:21.220Z,84.51
2022-12-13T16:38:48.699Z,84.42
2022-12-13T16:41:15.673Z,84.76
2022-12-13T16:44:03.267Z,84.92
2022-12-13T16:47:17.900Z,84.71
2022-12-13T16:49:27.859Z,84.90
2022-12-13T16:51:55.075Z,85.17
2022-12-13T16:54:24.378Z,85.12
2022-12-13T16:56:51.682Z,84.80
2022-12-13T16:59:22.264Z,85.22
2022-12-13T17:01:50.242Z,85.84
2022-12-13T17:04:20.897Z,85.27
2022-12-13T17:06:54.505Z,85.22
2022-12-13T17:09:23.686Z,85.38
2022-12-13T17:11:50.827Z,86.13
2022-12-13T17:14:17.276Z,85.48
2022-12-13T17:16:43.897Z,85.52
2022-12-13T17:19:12.255Z,85.32
2022-12-13T17:21:38.733Z,86.01
2022-12-13T17:24:05.934Z,86.03
2022-12-13T17:26:32.725Z,85.96
2022-12-13T17:28:59.187Z,85.73
2022-12-13T17:31:28.097Z,86.18
2022-12-13T17:33:59.984Z,86.23
2022-12-13T17:36:26.908Z,86.13
2022-12-13T17:38:53.412Z,86.51
2022-12-13T17:41:19.942Z,86.61
2022-12-13T17:43:46.417Z,86.49
2022-12-13T17:46:18.534Z,86.46
2022-12-13T17:48:45.640Z,86.68
2022-12-13T17:51:13.033Z,86.93
2022-12-13T17:53:41.071Z,86.40
2022-12-13T17:56:11.876Z,87.03
2022-12-13T17:58:38.992Z,86.94
2022-12-13T18:01:15.762Z,86.62
2022-12-13T18:03:42.744Z,86.73
2022-12-13T18:06:09.656Z,86.80
2022-12-13T18:08:40.379Z,86.44
2022-12-13T18:11:31.777Z,86.81
2022-12-13T18:13:55.804Z,86.41
2022-12-13T18:16:26.678Z,86.85
2022-12-13T18:18:57.087Z,86.71
2022-12-13T18:21:24.977Z,86.61
2022-12-13T18:23:54.955Z,86.82
2022-12-13T18:26:23.311Z,87.27
2022-12-13T18:28:49.771Z,86.62
2022-12-13T18:31:22.245Z,86.81
2022-12-13T18:33:50.189Z,87.00
2022-12-13T18:36:17.410Z,86.89
2022-12-13T18:38:44.157Z,86.86
2022-12-13T18:41:20.206Z,86.31
2022-12-13T18:43:47.594Z,86.56
2022-12-13T18:46:15.115Z,86.67
2022-12-13T18:48:41.750Z,86.62
2022-12-13T18:51:09.752Z,86.64
2022-12-13T18:53:37.702Z,86.96
2022-12-13T18:56:18.287Z,86.72
2022-12-13T18:58:48.194Z,86.99
2022-12-13T19:01:16.700Z,86.92
2022-12-13T19:03:45.232Z,87.05
2022-12-13T19:06:19.927Z,87.10
2022-12-13T19:08:51.452Z,86.81
2022-12-13T19:11:18.883Z,87.04
2022-12-13T19:13:45.468Z,86.79
2022-12-13T19:16:14.348Z,86.71
2022-12-13T19:18:42.332Z,87.09
2022-12-13T19:21:13.033Z,86.96
2022-12-13T19:23:40.972Z,86.83
2022-12-13T19:26:10.546Z,86.86
2022-12-13T19:28:38.012Z,86.87
2022-12-13T19:31:09.217Z,86.86
2022-12-13T19:33:35.988Z,87.21
2022-12-13T19:36:03.694Z,86.80
2022-12-13T19:38:30.345Z,87.05
2022-12-13T19:40:56.999Z,86.96
2022-12-13T19:43:23.821Z,86.88
2022-12-13T19:45:50.547Z,87.15
2022-12-13T19:48:17.290Z,86.70
2022-12-13T19:50:44.467Z,87.10
2022-12-13T19:53:11.957Z,86.99
2022-12-13T19:55:48.363Z,87.35
2022-12-13T19:58:15.275Z,86.86
2022-12-13T20:00:41.783Z,86.76
2022-12-13T20:03:08.398Z,87.20
2022-12-13T20:05:35.986Z,86.66
2022-12-13T20:08:02.891Z,87.38
2022-12-13T20:10:29.434Z,87.51
2022-12-13T20:12:55.977Z,87.64
2022-12-13T20:15:22.513Z,87.29
2022-12-13T20:17:49.061Z,87.89
2022-12-13T20:20:15.629Z,87.49
2022-12-13T20:22:42.170Z,88.00
2022-12-13T20:25:10.005Z,87.42
2022-12-13T20:27:36.561Z,87.89
2022-12-13T20:30:04.778Z,87.17
2022-12-13T20:32:31.478Z,87.52
2022-12-13T20:34:58.024Z,87.52
2022-12-13T20:37:24.737Z,87.57
2022-12-13T20:39:51.170Z,87.58
2022-12-13T20:42:17.607Z,87.45
2022-12-13T20:44:44.735Z,87.64
2022-12-13T20:47:11.561Z,87.41
2022-12-13T20:49:38.072Z,87.26
2022-12-13T20:52:04.803Z,87.52
2022-12-13T20:54:31.488Z,87.72
2022-12-13T20:56:58.144Z,87.42
2022-12-13T20:59:24.598Z,87.22
2022-12-13T21:01:51.125Z,87.89
2022-12-13T21:04:18.158Z,87.65
2022-12-13T21:06:44.679Z,87.27
2022-12-13T21:09:11.970Z,87.26
2022-12-13T21:11:41.215Z,87.56
2022-12-13T21:14:22.313Z,86.81
2022-12-13T21:16:52.534Z,87.26
2022-12-13T21:19:24.565Z,86.87
2022-12-13T21:21:52.292Z,87.58
2022-12-13T21:24:20.320Z,86.80
2022-12-13T21:26:47.455Z,87.46
2022-12-13T21:29:16.185Z,86.88
2022-12-13T21:31:48.768Z,87.72
2022-12-13T21:34:16.567Z,87.11
2022-12-13T21:36:45.152Z,87.33
2022-12-13T21:39:23.162Z,86.93
2022-12-13T21:41:50.589Z,87.10
2022-12-13T21:44:18.069Z,87.28
2022-12-13T21:47:11.318Z,86.77
2022-12-13T21:49:31.524Z,87.13
2022-12-13T21:51:58.016Z,86.79
2022-12-13T21:54:24.476Z,86.83
2022-12-13T21:57:11.196Z,87.31
2022-12-13T21:59:37.694Z,87.17
2022-12-13T22:02:12.281Z,86.96
2022-12-13T22:04:40.158Z,86.89
2022-12-13T22:07:08.348Z,86.57
2022-12-13T22:09:36.026Z,86.63
2022-12-13T22:12:07.255Z,86.83
2022-12-13T22:14:33.853Z,86.79
2022-12-13T22:17:01.195Z,86.28
2022-12-13T22:19:27.718Z,86.61
2022-12-13T22:21:54.196Z,86.55
2022-12-13T22:24:20.647Z,86.55
2022-12-13T22:26:47.105Z,86.79
2022-12-13T22:29:13.761Z,86.46
2022-12-13T22:31:40.425Z,86.60
2022-12-13T22:34:07.209Z,87.07
2022-12-13T22:36:34.014Z,86.78
2022-12-13T22:39:00.669Z,86.67
2022-12-13T22:41:27.271Z,86.48
2022-12-13T22:43:54.599Z,86.91
2022-12-13T22:46:21.112Z,87.06
2022-12-13T22:48:47.644Z,86.84
2022-12-13T22:51:16.541Z,87.24
2022-12-13T22:53:44.743Z,86.56
2022-12-13T22:56:13.732Z,86.46
2022-12-13T22:58:41.264Z,86.92
2022-12-13T23:01:11.553Z,86.86
2022-12-13T23:03:40.027Z,86.92
2022-12-13T23:06:15.160Z,86.60
2022-12-13T23:08:44.806Z,86.56
2022-12-13T23:11:33.139Z,86.94
2022-12-13T23:14:01.416Z,86.89
2022-12-13T23:16:30.022Z,87.33
2022-12-13T23:19:17.261Z,87.23
2022-12-13T23:21:48.460Z,87.04
2022-12-13T23:24:15.881Z,87.20
2022-12-13T23:26:42.479Z,86.91
2022-12-13T23:29:10.031Z,87.41
2022-12-13T23:31:42.728Z,87.24
2022-12-13T23:34:15.624Z,87.49
2022-12-13T23:36:42.098Z,87.59
2022-12-13T23:39:10.240Z,87.51
2022-12-13T23:41:36.800Z,87.25
2022-12-13T23:44:04.341Z,87.08
2022-12-13T23:46:35.888Z,87.07
2022-12-13T23:49:04.790Z,87.36
2022-12-13T23:51:32.138Z,87.13
2022-12-13T23:53:58.628Z,87.51
2022-12-13T23:56:25.182Z,87.37
2022-12-13T23:58:51.646Z,87.31
